Flight Track Log - Related Links

Times and Time Zones

All times are in EST time to prevent confusion due to time zone crossing. See the N6036Y flight status page for this flight to view local times or setup timezone preferences in your user account.

Time Position Orientation Groundspeed Altitude Reporting Facility
EST Latitude Longitude Course Direction KTS MPH feet Rate Location/Type
Fri 10:28:19 PM 26.1931 -80.1817 308° West 69 79 300  Level Miami Center
Fri 10:29:20 PM 26.2031 -80.1958 308° West 65 75 1,200 836 Climbing Miami Center
Fri 10:30:21 PM 26.2194 -80.2100 322° Northwest 70 81 2,000 738 Climbing Miami Center
Fri 10:31:22 PM 26.2361 -80.2175 338° Northwest 74 85 2,700 196 Climbing Miami Center
Fri 10:55:53 PM 26.8372 -80.3161 338° Northwest 100 115 7,000 169 Climbing Miami Center
Fri 10:56:00 PM 26.9117 -80.1698 343° North  Level FlightAware Approximate
Fri 10:56:52 PM 26.8644 -80.3217 350° North 100 115 7,000  Level Miami Center
Fri 10:57:00 PM 26.9406 -80.1800 342° North  Level FlightAware Approximate
Fri 10:57:50 PM 26.8933 -80.3272 350° North 100 115 7,000  Level Miami Center
Fri 10:58:00 PM 26.9690 -80.1920 338° Northwest  Level FlightAware Approximate
Fri 10:58:52 PM 26.9203 -80.3350 346° North 95 109 7,000  Level Miami Center
Fri 10:59:00 PM 26.9972 -80.2048 338° Northwest  Level FlightAware Approximate
Fri 10:59:50 PM 26.9475 -80.3403 350° North 95 109 7,000  Level Miami Center
Fri 11:00:00 PM 27.0253 -80.2175 338° Northwest  Level FlightAware Approximate
Fri 11:00:51 PM 26.9703 -80.3433 353° North 95 109 7,000  Level Miami Center
Fri 11:01:51 PM 26.9953 -80.3489 349° North 95 109 7,000  Level Miami Center
Fri 11:02:51 PM 27.0222 -80.3542 350° North 108 124 7,000  Level Miami Center
Fri 11:03:52 PM 27.0472 -80.3597 349° North 101 116 7,000  Level Miami Center
Fri 11:04:52 PM 27.0700 -80.3650 348° North 96 110 7,000  Level Miami Center
Fri 11:05:50 PM 27.0969 -80.3706 350° North 96 110 7,000  Level Miami Center
Fri 11:06:50 PM 27.1261 -80.3761 350° North 91 105 7,000  Level Miami Center
Fri 11:07:53 PM 27.1511 -80.3839 345° North 86 99 7,000  Level Miami Center
Fri 11:08:51 PM 27.1758 -80.3869 354° North 86 99 7,000  Level Miami Center
Fri 11:09:53 PM 27.2008 -80.3925 349° North 86 99 7,000  Level Miami Center
Fri 11:10:51 PM 27.2258 -80.3978 349° North 86 99 7,000  Level Miami Center
Fri 11:11:51 PM 27.2528 -80.4033 350° North 86 99 7,000  Level Miami Center
Fri 11:13:03 PM 27.2797 -80.4089 350° North 86 99 7,000  Level Miami Center
Fri 11:14:03 PM 27.3047 -80.4142 349° North 86 99 7,000  Level Miami Center
Fri 11:15:04 PM 27.3319 -80.4175 354° North 86 99 7,000  Level Miami Center
Fri 11:16:05 PM 27.3567 -80.4228 349° North 86 99 7,000 50 Level Miami Center
Fri 11:17:03 PM 27.3839 -80.4261 354° North 86 99 7,100  Climbing Miami Center
Fri 11:18:04 PM 27.4067 -80.4314 348° North 86 99 7,000 -49 Descending Miami Center
Fri 11:19:05 PM 27.4317 -80.4369 349° North 86 99 7,000  Level Miami Center
Fri 11:20:15 PM 27.4647 -80.4472 345° North 86 99 7,000  Level Miami Center
Fri 11:21:27 PM 27.4917 -80.4506 354° North 86 99 7,000  Level Miami Center
Fri 11:22:29 PM 27.5208 -80.4561 350° North 86 99 7,000  Level Miami Center
Fri 11:23:29 PM 27.5458 -80.4639 345° North 86 99 7,000  Level Miami Center
Fri 11:24:27 PM 27.5706 -80.4692 349° North 86 99 7,000  Level Miami Center
Fri 11:25:27 PM 27.5914 -80.4722 353° North 86 99 7,000  Level Miami Center
Fri 11:26:26 PM 27.6183 -80.4778 350° North 86 99 7,000  Level Miami Center
Fri 11:27:29 PM 27.6456 -80.4833 350° North 86 99 7,000  Level Miami Center
Fri 11:28:38 PM 27.6725 -80.4914 345° North 86 99 7,000  Level Miami Center
Fri 11:29:51 PM 27.7036 -80.4992 348° North 86 99 7,000  Level Miami Center
Fri 11:30:52 PM 27.7283 -80.5094 340° North 86 99 7,000  Level Miami Center
Fri 11:31:50 PM 27.7511 -80.5172 343° North 86 99 7,000  Level Miami Center
Fri 11:32:51 PM 27.7739 -80.5225 348° North 86 99 7,000  Level Miami Center
Fri 11:33:50 PM 27.7967 -80.5328 338° Northwest 86 99 7,000  Level Miami Center
Fri 11:34:50 PM 27.8214 -80.5406 344° North 86 99 7,000  Level Miami Center
Fri 11:35:52 PM 27.8483 -80.5486 345° North 91 105 7,000  Level Miami Center
Fri 11:36:53 PM 27.8689 -80.5561 342° North 91 105 7,000  Level Miami Center
Fri 11:37:51 PM 27.8917 -80.5642 343° North 91 105 7,000  Level Miami Center
Fri 11:39:51 PM 27.9333 -80.5833 338° Northwest 86 99 7,000  Level Orlando TRACON
Fri 11:40:51 PM 27.9667 -80.5833 360° North 87 100 7,000  Level Orlando TRACON
Fri 11:41:51 PM 27.9833 -80.6000 319° Northwest 87 100 7,000  Level Orlando TRACON
Fri 11:42:51 PM 28.0167 -80.6000 360° North 89 102 7,000  Level Orlando TRACON
Fri 11:43:51 PM 28.0333 -80.6167 319° Northwest 89 102 7,000  Level Orlando TRACON
Fri 11:44:51 PM 28.0667 -80.6167 360° North 87 100 7,000  Level Orlando TRACON
Fri 11:45:51 PM 28.0833 -80.6333 319° Northwest 86 99 7,000  Level Orlando TRACON
Fri 11:46:57 PM 28.1000 -80.6333 360° North 86 99 7,000  Level Orlando TRACON
Fri 11:47:57 PM 28.1333 -80.6500 336° Northwest 86 99 7,000  Level Orlando TRACON
Fri 11:48:46 PM 28.1500 -80.6500 360° North 87 100 7,000  Level Orlando TRACON
Fri 11:49:46 PM 28.1667 -80.6667 319° Northwest 88 101 7,000  Level Orlando TRACON
Fri 11:50:45 PM 28.2000 -80.6667 360° North 87 100 7,000  Level Orlando TRACON
Fri 11:51:46 PM 28.2167 -80.6833 319° Northwest 87 100 7,000  Level Orlando TRACON
Fri 11:52:58 PM 28.2500 -80.6833 360° North 85 98 7,000  Level Orlando TRACON
Fri 11:53:58 PM 28.2667 -80.7000 319° Northwest 86 99 7,000  Level Orlando TRACON
Fri 11:54:52 PM 28.2833 -80.7000 360° North 85 98 7,000  Level Orlando TRACON
Fri 11:55:52 PM 28.3167 -80.7167 336° Northwest 86 99 7,000 -50 Level Orlando TRACON
Fri 11:56:52 PM 28.3333 -80.7167 360° North 88 101 6,900 -300 Descending Orlando TRACON
Fri 11:57:52 PM 28.3500 -80.7333 319° Northwest 87 100 6,400 -524 Descending Orlando TRACON
Fri 11:58:58 PM 28.3833 -80.7500 336° Northwest 93 107 5,800 -571 Descending Orlando TRACON
Fri 11:59:58 PM 28.4000 -80.7500 360° North 91 105 5,200 -400 Descending Orlando TRACON
Sat 12:00:58 AM 28.4333 -80.7667 336° Northwest 87 100 5,000 -143 Descending Orlando TRACON
Sat 12:02:04 AM 28.4500 -80.7667 360° North 88 101 4,900  Descending Orlando TRACON
Sat 12:02:52 AM 28.4667 -80.7833 319° Northwest 83 96 5,000  Climbing Orlando TRACON
Sat 12:03:52 AM 28.5000 -80.7833 360° North 82 94 4,900 -50 Descending Orlando TRACON
Sat 12:04:52 AM 28.5167 -80.8000 319° Northwest 86 99 4,900 50 Level Orlando TRACON
Sat 12:05:52 AM 28.5333 -80.8000 360° North 83 96 5,000 50 Climbing Orlando TRACON
Sat 12:06:52 AM 28.5667 -80.8167 336° Northwest 82 94 5,000  Level Orlando TRACON
Sat 12:07:52 AM 28.5833 -80.8167 360° North 84 97 5,000  Level Orlando TRACON
Sat 12:08:52 AM 28.6000 -80.8333 319° Northwest 86 99 5,000  Level Orlando TRACON
Sat 12:09:52 AM 28.6333 -80.8333 360° North 83 96 5,000  Level Orlando TRACON
Sat 12:10:58 AM 28.6500 -80.8500 319° Northwest 85 98 5,000 -48 Level Orlando TRACON
Sat 12:11:58 AM 28.6667 -80.8500 360° North 82 94 4,900  Descending Orlando TRACON
Sat 12:12:58 AM 28.6833 -80.8667 319° Northwest 79 91 5,000 50 Climbing Orlando TRACON
Sat 12:13:58 AM 28.7167 -80.8833 336° Northwest 85 98 5,000  Level Orlando TRACON
Sat 12:14:58 AM 28.7333 -80.8833 360° North 85 98 5,000 31 Level Orlando TRACON
Sat 12:17:11 AM 28.7856 -80.9075 338° Northwest 86 99 5,100 31 Climbing Jacksonville Center
Sat 12:18:12 AM 28.8067 -80.9164 340° North 86 99 5,100  Level Jacksonville Center
Sat 12:19:13 AM 28.8297 -80.9256 341° North 86 99 5,100  Level Jacksonville Center
Sat 12:20:13 AM 28.8550 -80.9344 343° North 86 99 5,100  Level Jacksonville Center
Sat 12:21:14 AM 28.8781 -80.9411 346° North 84 97 5,100 -98 Level Jacksonville Center
Sat 12:22:15 AM 28.8969 -80.9528 332° Northwest 83 96 4,900 -365 Descending Jacksonville Center
Sat 12:23:09 AM 28.9181 -80.9617 340° North 82 94 4,400 -574 Descending Jacksonville Center
Sat 12:24:10 AM 28.9411 -80.9708 341° North 83 96 3,800 -645 Descending Jacksonville Center
Sat 12:25:10 AM 28.9642 -80.9775 346° North 87 100 3,100 -645 Descending Jacksonville Center
Sat 12:26:11 AM 28.9850 -80.9842 344° North 88 101 2,500 -541 Descending Jacksonville Center
Sat 12:27:12 AM 28.9869 -80.9581 85° East 116 133 2,000 -645 Descending Jacksonville Center
Sat 12:28:12 AM 28.9842 -80.9297 96° East 105 121 1,200 -496 Descending Jacksonville Center
Sat 12:29:13 AM 29.0050 -80.9103 39° Northeast 85 98 1,000 -149 Descending Jacksonville Center
Sat 12:30:13 AM 29.0256 -80.8978 28° Northeast 82 94 900 -99 Descending Jacksonville Center
Sat 12:31:14 AM 29.0425 -80.9094 329° Northwest 76 87 800 -246 Descending Jacksonville Center
Sat 12:32:15 AM 29.0469 -80.9283 285° West 64 74 400 -393 Descending Jacksonville Center
Sat 12:34:00 AM 29.0557 -80.9489 305° West  Level Estimated
Sat 12:41:00 AM 29.0557 -80.9489 41° Northeast  Level Estimated
Sat 12:42:00 AM 29.0557 -80.9489 41° Northeast  Level Estimated

Login

Don't have an account? Register now (free) for customized features, flight alerts, and more!